Weather History for Lacon, IL

Change the Weather History Date:

Monday, December 31, 2012

  Actual Average (KPIA) Record (KPIA)
Temperature  
Mean Temperature 28 °F 25 °F  
Max Temperature 36 °F 33 °F 60 °F (1896)
Min Temperature 20 °F 18 °F -14 °F (1967)
Degree Days  
Heating Degree Days 37 40  
Month to date heating degree days 1130  
Since 1 July heating degree days 2278  
Cooling Degree Days 0 0  
Month to date cooling degree days 0  
Year to date cooling degree days 1039  
Moisture  
Dew Point 21 °F    
Average Humidity 72    
Maximum Humidity 81    
Minimum Humidity 58    
Precipitation  
Precipitation 0.00 in 0.07 in 1.89 in (2010)
Month to date precipitation 2.42  
Year to date precipitation 36.49  
Snow  
Snow 0.00 in 0.20 in 7.20 in (1978)
Month to date snowfall 7.1  
Since 1 July snowfall 8.2  
Snow Depth -    
Sea Level Pressure  
Sea Level Pressure 30.09 in    
Wind  
Wind Speed 9 mph (WSW)    
Max Wind Speed 12 mph    
Max Gust Speed 24 mph    
Visibility 10 miles    
Events Rain , Snow    
T = Trace of Precipitation, MM = Missing Value Source: NWS Daily Summary

Daily Weather History Graph

Daily Weather History Graph

Search for Another Location

Airport:

Trip Planner

Search our weather history database for the weather conditions in past years. The results will help you decide how hot, cold, wet, or windy it might be!

Date:

Astronomy

Dec. 31, 2012 Rise Set
Actual Time 7:22 AM CST 4:39 PM CST
Civil Twilight 6:51 AM CST 5:10 PM CST
Nautical Twilight 6:16 AM CST 5:44 PM CST
Astronomical Twilight 5:43 AM CST 6:18 PM CST
Moon 8:11 PM CST (12/31) 9:02 AM CST (12/31)
Length of Visible Light 10h 18m
Length of Day
9h 16m
Waning Gibbous, 90% of the Moon is Illuminated
Dec 31
Waning Gibbous
Jan 4
Last Quarter
Jan 11
New
Jan 18
First Quarter
Jan 26
Full

Hourly Weather History & Observations

Time (CST) Temp. Windchill Dew Point Humidity Pressure Visibility Wind Dir Wind Speed Gust Speed Precip Events Conditions
12:15 AM 33.4 °F 24.8 °F 25.5 °F 73% 30.09 in 10.0 mi South 11.5 mph 24.2 mph N/A   Clear
12:35 AM 33.6 °F 25.6 °F 25.5 °F 72% 30.08 in 10.0 mi South 10.4 mph 17.3 mph N/A   Clear
12:55 AM 33.4 °F 24.8 °F 25.7 °F 73% 30.08 in 10.0 mi South 11.5 mph 16.1 mph N/A   Clear
1:15 AM 33.8 °F 25.8 °F 25.5 °F 72% 30.07 in 10.0 mi South 10.4 mph - N/A   Clear
1:35 AM 33.4 °F 25.4 °F 25.7 °F 73% 30.09 in 10.0 mi South 10.4 mph 17.3 mph N/A   Scattered Clouds
1:55 AM 33.8 °F 25.8 °F 25.7 °F 72% 30.09 in 10.0 mi South 10.4 mph - N/A   Scattered Clouds
2:15 AM 33.4 °F 24.8 °F 25.5 °F 73% 30.08 in 10.0 mi South 11.5 mph - N/A   Clear
2:35 AM 33.4 °F 25.9 °F 25.5 °F 73% 30.08 in 10.0 mi South 9.2 mph - N/A   Scattered Clouds
2:55 AM 33.4 °F 26.6 °F 25.5 °F 73% 30.08 in 10.0 mi SSW 8.1 mph - N/A   Clear
3:15 AM 33.6 °F 26.8 °F 25.2 °F 71% 30.08 in 10.0 mi SSW 8.1 mph - N/A   Scattered Clouds
3:35 AM 34.2 °F 26.2 °F 24.3 °F 67% 30.09 in 10.0 mi SSW 10.4 mph - N/A   Scattered Clouds
3:55 AM 34.7 °F 28.1 °F 23.7 °F 64% 30.08 in 10.0 mi SSW 8.1 mph - N/A   Scattered Clouds
4:15 AM 34.7 °F 27.5 °F 23.7 °F 64% 30.07 in 10.0 mi SSW 9.2 mph - N/A   Clear
4:35 AM 35.6 °F 29.2 °F 23.0 °F 60% 30.07 in 10.0 mi SSW 8.1 mph - N/A   Scattered Clouds
4:55 AM 36.0 °F 29.6 °F 22.6 °F 58% 30.06 in 10.0 mi SW 8.1 mph 17.3 mph N/A   Clear
5:15 AM 35.8 °F 28.8 °F 22.8 °F 59% 30.05 in 10.0 mi SSW 9.2 mph - N/A   Scattered Clouds
5:35 AM 35.6 °F 29.2 °F 23.0 °F 60% 30.05 in 10.0 mi SW 8.1 mph - N/A   Scattered Clouds
5:55 AM 34.7 °F 28.8 °F 23.7 °F 64% 30.05 in 10.0 mi SSW 6.9 mph - N/A   Scattered Clouds
6:15 AM 34.9 °F 29.0 °F 23.4 °F 63% 30.05 in 10.0 mi SSW 6.9 mph - N/A   Scattered Clouds
6:35 AM 35.1 °F 28.6 °F 23.5 °F 63% 30.07 in 10.0 mi SSW 8.1 mph - N/A   Scattered Clouds
6:55 AM 35.6 °F 28.6 °F 23.2 °F 61% 30.08 in 10.0 mi SSW 9.2 mph - N/A   Scattered Clouds
7:15 AM 36.0 °F 29.6 °F 23.0 °F 59% 30.08 in 10.0 mi SW 8.1 mph - N/A   Mostly Cloudy
7:35 AM 36.0 °F 28.5 °F 23.0 °F 59% 30.07 in 10.0 mi SW 10.4 mph 17.3 mph N/A   Mostly Cloudy
7:55 AM 35.8 °F 29.4 °F 23.4 °F 61% 30.08 in 10.0 mi SW 8.1 mph 16.1 mph N/A   Scattered Clouds
8:15 AM 35.8 °F 28.3 °F 23.5 °F 61% 30.08 in 10.0 mi SW 10.4 mph - N/A   Clear
8:35 AM 35.6 °F 28.6 °F 23.9 °F 62% 30.07 in 10.0 mi WSW 9.2 mph 16.1 mph N/A   Clear
8:55 AM 34.9 °F 29.0 °F 24.8 °F 67% 30.07 in 10.0 mi WSW 6.9 mph - N/A   Clear
9:15 AM 34.3 °F 27.7 °F 25.7 °F 71% 30.08 in 10.0 mi WSW 8.1 mph - N/A   Clear
9:35 AM 33.8 °F 27.7 °F 26.4 °F 74% 30.09 in 10.0 mi West 6.9 mph - N/A   Clear
9:55 AM 33.6 °F 26.8 °F 25.9 °F 73% 30.10 in 10.0 mi WSW 8.1 mph - N/A   Scattered Clouds
10:15 AM 33.1 °F 25.5 °F 26.4 °F 77% 30.11 in 10.0 mi SW 9.2 mph - N/A   Mostly Cloudy
10:35 AM 32.9 °F 25.9 °F 24.6 °F 72% 30.10 in 10.0 mi SW 8.1 mph - N/A   Overcast
10:55 AM 32.5 °F 24.8 °F 24.6 °F 73% 30.10 in 10.0 mi WSW 9.2 mph - N/A   Overcast
11:15 AM 32.0 °F 25.6 °F 23.4 °F 70% 30.10 in 10.0 mi West 6.9 mph - N/A   Overcast
11:35 AM 31.5 °F 24.9 °F 23.0 °F 71% 30.10 in 10.0 mi West 6.9 mph - N/A   Overcast
11:55 AM 31.1 °F 25.4 °F 22.8 °F 71% 30.09 in 10.0 mi West 5.8 mph - N/A   Overcast
12:15 PM 30.6 °F 24.7 °F 23.0 °F 74% 30.09 in 10.0 mi West 5.8 mph - N/A   Overcast
12:35 PM 29.3 °F 21.5 °F 22.1 °F 75% 30.09 in 10.0 mi West 8.1 mph - N/A   Overcast
12:55 PM 28.8 °F 20.2 °F 22.3 °F 77% 30.08 in 4.0 mi West 9.2 mph - N/A Rain Light Freezing Rain
1:15 PM 28.0 °F 22.8 °F 23.0 °F 81% 30.07 in 4.0 mi West 4.6 mph - N/A   Overcast
1:35 PM 28.9 °F 22.8 °F 21.9 °F 75% 30.07 in 10.0 mi West 5.8 mph - N/A   Overcast
1:55 PM 28.4 °F 19.1 °F 21.7 °F 76% 30.07 in 7.0 mi West 10.4 mph - N/A   Mostly Cloudy
2:15 PM 28.4 °F 20.4 °F 21.2 °F 74% 30.08 in 10.0 mi West 8.1 mph - N/A   Scattered Clouds
2:35 PM 28.2 °F 22.0 °F 21.4 °F 76% 30.07 in 10.0 mi West 5.8 mph - N/A   Scattered Clouds
2:55 PM 27.9 °F 19.8 °F 21.6 °F 77% 30.08 in 10.0 mi WNW 8.1 mph - N/A   Overcast
3:15 PM 26.6 °F 16.2 °F 21.4 °F 81% 30.09 in 3.0 mi WNW 11.5 mph - N/A Snow Light Snow
3:35 PM 25.7 °F 16.4 °F 18.9 °F 75% 30.09 in 10.0 mi WNW 9.2 mph - N/A   Mostly Cloudy
3:55 PM 25.5 °F 18.7 °F 18.9 °F 76% 30.08 in 10.0 mi WNW 5.8 mph - N/A   Overcast
4:15 PM 24.8 °F 14.6 °F 17.6 °F 74% 30.08 in 10.0 mi WNW 10.4 mph - N/A   Mostly Cloudy
4:35 PM 23.7 °F 13.3 °F 17.2 °F 76% 30.09 in 10.0 mi WNW 10.4 mph - N/A   Overcast
4:55 PM 23.0 °F 13.9 °F 16.7 °F 77% 30.10 in 10.0 mi West 8.1 mph - N/A   Overcast
5:15 PM 22.6 °F 13.4 °F 16.3 °F 77% 30.10 in 10.0 mi WNW 8.1 mph - N/A   Overcast
5:35 PM 22.1 °F 14.7 °F 15.4 °F 76% 30.11 in 10.0 mi West 5.8 mph - N/A   Overcast
5:55 PM 21.9 °F 11.7 °F 15.3 °F 76% 30.11 in 10.0 mi West 9.2 mph - N/A   Overcast
6:15 PM 21.7 °F 11.5 °F 15.1 °F 76% 30.11 in 10.0 mi West 9.2 mph - N/A   Overcast
6:35 PM 21.6 °F 12.1 °F 15.6 °F 78% 30.12 in 10.0 mi WNW 8.1 mph - N/A   Overcast
6:55 PM 21.4 °F 10.4 °F 15.6 °F 78% 30.12 in 10.0 mi WNW 10.4 mph - N/A   Overcast
7:15 PM 21.4 °F 10.4 °F 15.6 °F 78% 30.13 in 10.0 mi WNW 10.4 mph - N/A   Overcast
7:35 PM 21.0 °F 11.4 °F 15.1 °F 78% 30.12 in 10.0 mi NW 8.1 mph - N/A   Overcast
7:55 PM 20.7 °F 10.2 °F 14.0 °F 75% 30.12 in 10.0 mi NW 9.2 mph - N/A   Overcast
8:15 PM 20.3 °F 9.8 °F 14.0 °F 77% 30.12 in 10.0 mi NW 9.2 mph - N/A   Overcast
8:35 PM 20.3 °F 10.6 °F 14.0 °F 77% 30.13 in 10.0 mi NW 8.1 mph - N/A   Overcast
8:55 PM 20.7 °F 10.2 °F 14.0 °F 75% 30.13 in 10.0 mi NW 9.2 mph - N/A   Overcast
9:15 PM 20.7 °F 11.9 °F 14.2 °F 76% 30.13 in 10.0 mi NW 6.9 mph - N/A   Overcast
9:35 PM 20.7 °F 13.0 °F 14.4 °F 77% 30.15 in 10.0 mi NW 5.8 mph - N/A   Overcast
9:55 PM 20.8 °F 11.2 °F 14.7 °F 77% 30.15 in 10.0 mi NW 8.1 mph - N/A   Overcast
10:15 PM 20.8 °F 10.4 °F 14.2 °F 75% 30.14 in 10.0 mi NW 9.2 mph - N/A   Overcast
10:35 PM 20.8 °F 11.2 °F 14.4 °F 76% 30.16 in 10.0 mi NW 8.1 mph - N/A   Overcast
10:55 PM 20.8 °F 9.0 °F 14.4 °F 76% 30.15 in 10.0 mi NW 11.5 mph - N/A   Overcast
11:15 PM 21.0 °F 13.4 °F 14.9 °F 77% 30.15 in 10.0 mi NNW 5.8 mph - N/A   Overcast
11:35 PM 21.0 °F 13.4 °F 14.9 °F 77% 30.14 in 10.0 mi NW 5.8 mph - N/A   Overcast
11:55 PM 21.2 °F 10.9 °F 14.0 °F 74% 30.14 in 10.0 mi NW 9.2 mph - N/A   Overcast